createdAt,value
2017-01-12T00:00:06.624Z,0
2017-01-12T00:00:36.652Z,0
2017-01-12T00:01:06.679Z,0
2017-01-12T00:01:36.713Z,0
2017-01-12T00:02:06.747Z,0
2017-01-12T00:02:36.781Z,0
2017-01-12T00:03:06.801Z,0
2017-01-12T00:03:36.833Z,0
2017-01-12T00:04:06.868Z,0
2017-01-12T00:04:36.918Z,0
2017-01-12T00:05:06.957Z,0
2017-01-12T00:05:36.954Z,0
2017-01-12T00:06:06.982Z,0
2017-01-12T00:06:37.014Z,0
2017-01-12T00:07:07.044Z,0
2017-01-12T00:07:37.071Z,0
2017-01-12T00:08:07.112Z,0
2017-01-12T00:08:37.142Z,0
2017-01-12T00:09:07.160Z,0
2017-01-12T00:09:37.188Z,0
2017-01-12T00:10:07.227Z,0
2017-01-12T00:10:37.251Z,0
2017-01-12T00:11:07.286Z,0
2017-01-12T00:11:37.323Z,0
2017-01-12T00:12:07.344Z,0
2017-01-12T00:12:37.374Z,0
2017-01-12T00:13:07.402Z,0
2017-01-12T00:13:37.440Z,0
2017-01-12T00:14:07.466Z,0
2017-01-12T00:14:37.494Z,0
2017-01-12T00:15:07.527Z,0
2017-01-12T00:15:37.550Z,0
2017-01-12T00:16:07.580Z,0
2017-01-12T00:16:37.619Z,0
2017-01-12T00:17:07.651Z,0
2017-01-12T00:17:37.688Z,0
2017-01-12T00:18:07.718Z,0
2017-01-12T00:18:37.742Z,0
2017-01-12T00:19:07.764Z,0
2017-01-12T00:19:37.798Z,0
2017-01-12T00:20:07.829Z,0
2017-01-12T00:20:37.845Z,0
2017-01-12T00:21:07.882Z,0
2017-01-12T00:21:37.908Z,0
2017-01-12T00:22:07.940Z,0
2017-01-12T00:22:37.973Z,0
2017-01-12T00:23:08.007Z,0
2017-01-12T00:23:38.029Z,0
2017-01-12T00:24:08.071Z,0
2017-01-12T00:24:38.095Z,0
2017-01-12T00:25:08.128Z,0
2017-01-12T00:25:38.159Z,0
2017-01-12T00:26:08.183Z,0
2017-01-12T00:26:38.213Z,0
2017-01-12T00:27:08.243Z,0
2017-01-12T00:27:38.273Z,0
2017-01-12T00:28:08.306Z,0
2017-01-12T00:28:38.339Z,0
2017-01-12T00:29:08.362Z,0
2017-01-12T00:29:38.390Z,0
2017-01-12T00:30:08.431Z,0
2017-01-12T00:30:38.748Z,0
2017-01-12T00:31:08.493Z,0
2017-01-12T00:31:38.520Z,0
2017-01-12T00:32:08.547Z,0
2017-01-12T00:32:38.571Z,0
2017-01-12T00:33:08.611Z,0
2017-01-12T00:33:38.632Z,0
2017-01-12T00:34:08.661Z,0
2017-01-12T00:34:38.696Z,0
2017-01-12T00:35:08.727Z,0
2017-01-12T00:35:38.802Z,0
2017-01-12T00:36:08.782Z,0
2017-01-12T00:36:38.827Z,0
2017-01-12T00:37:08.841Z,0
2017-01-12T00:37:38.865Z,0
2017-01-12T00:38:08.904Z,0
2017-01-12T00:38:38.934Z,0
2017-01-12T00:39:08.965Z,0
2017-01-12T00:39:38.986Z,0
2017-01-12T00:40:09.025Z,0
2017-01-12T00:40:39.055Z,0
2017-01-12T00:41:09.078Z,0
2017-01-12T00:41:39.120Z,0
2017-01-12T00:42:09.146Z,0
2017-01-12T00:42:39.170Z,0
2017-01-12T00:43:09.203Z,0
2017-01-12T00:43:39.233Z,0
2017-01-12T00:44:09.417Z,0
2017-01-12T00:44:39.286Z,0
2017-01-12T00:45:09.337Z,0
2017-01-12T00:45:39.353Z,0
2017-01-12T00:46:09.384Z,0
2017-01-12T00:46:39.408Z,0
2017-01-12T00:47:09.471Z,0
2017-01-12T00:47:39.468Z,0
2017-01-12T00:48:09.504Z,0
2017-01-12T00:48:39.538Z,0
2017-01-12T00:49:09.558Z,0
2017-01-12T00:49:39.596Z,0
2017-01-12T00:50:09.623Z,0
2017-01-12T00:50:39.650Z,0
2017-01-12T00:51:09.679Z,0
2017-01-12T00:51:39.710Z,0
2017-01-12T00:52:09.741Z,0
2017-01-12T00:52:39.775Z,0
2017-01-12T00:53:09.811Z,0
2017-01-12T00:53:39.838Z,0
2017-01-12T00:54:09.866Z,0
2017-01-12T00:54:39.926Z,0
2017-01-12T00:55:09.923Z,0
2017-01-12T00:55:39.956Z,0
2017-01-12T00:56:09.983Z,0
2017-01-12T00:56:40.011Z,0
2017-01-12T00:57:10.040Z,0
2017-01-12T00:57:40.078Z,0
2017-01-12T00:58:10.115Z,0
2017-01-12T00:58:40.127Z,0
2017-01-12T00:59:10.170Z,0
2017-01-12T00:59:40.199Z,0
2017-01-12T01:00:10.226Z,0
2017-01-12T01:00:40.261Z,0
2017-01-12T01:01:10.588Z,0
2017-01-12T01:01:40.319Z,0
2017-01-12T01:02:10.356Z,0
2017-01-12T01:02:40.377Z,0
2017-01-12T01:03:10.405Z,0
2017-01-12T01:03:40.434Z,0
2017-01-12T01:04:10.464Z,0
2017-01-12T01:04:40.497Z,0
2017-01-12T01:05:10.520Z,0
2017-01-12T01:05:40.553Z,0
2017-01-12T01:06:10.586Z,0
2017-01-12T01:06:40.614Z,0
2017-01-12T01:07:10.640Z,0
2017-01-12T01:07:40.677Z,0
2017-01-12T01:08:10.706Z,0
2017-01-12T01:08:40.733Z,0
2017-01-12T01:09:10.762Z,0
2017-01-12T01:09:40.799Z,0
2017-01-12T01:10:10.823Z,0
2017-01-12T01:10:40.852Z,0
2017-01-12T01:11:10.878Z,0
2017-01-12T01:11:40.945Z,0
2017-01-12T01:12:10.946Z,0
2017-01-12T01:12:40.976Z,0
2017-01-12T01:13:11.011Z,0
2017-01-12T01:13:41.040Z,0
2017-01-12T01:14:11.068Z,0
2017-01-12T01:14:41.093Z,0
2017-01-12T01:15:11.120Z,0
2017-01-12T01:15:41.156Z,0
2017-01-12T01:16:11.194Z,0
2017-01-12T01:16:41.206Z,0
2017-01-12T01:17:11.258Z,0
2017-01-12T01:17:41.266Z,0
2017-01-12T01:18:11.304Z,0
2017-01-12T01:18:41.337Z,0
2017-01-12T01:19:11.368Z,0
2017-01-12T01:19:41.394Z,0
2017-01-12T01:20:11.420Z,0
2017-01-12T01:20:41.457Z,0
2017-01-12T01:21:11.479Z,0
2017-01-12T01:21:41.808Z,0
2017-01-12T01:22:11.546Z,0
2017-01-12T01:22:41.608Z,0
2017-01-12T01:23:11.607Z,0
2017-01-12T01:23:41.640Z,0
2017-01-12T01:24:11.679Z,0
2017-01-12T01:24:41.702Z,0
2017-01-12T01:25:11.718Z,0
2017-01-12T01:25:41.753Z,0
2017-01-12T01:26:11.785Z,0
2017-01-12T01:26:41.815Z,0
2017-01-12T01:27:11.843Z,0
2017-01-12T01:27:41.872Z,0
2017-01-12T01:28:11.933Z,0
2017-01-12T01:28:41.934Z,0
2017-01-12T01:29:11.962Z,0
2017-01-12T01:29:41.991Z,0
2017-01-12T01:30:12.022Z,0
2017-01-12T01:30:42.058Z,0
2017-01-12T01:31:12.090Z,0
2017-01-12T01:31:42.413Z,0
2017-01-12T01:32:12.139Z,0
2017-01-12T01:32:42.181Z,0
2017-01-12T01:33:12.212Z,0
2017-01-12T01:33:42.237Z,0
2017-01-12T01:34:12.263Z,0
2017-01-12T01:34:42.290Z,0
2017-01-12T01:35:12.321Z,0
2017-01-12T01:35:42.362Z,0
2017-01-12T01:36:12.378Z,0
2017-01-12T01:36:42.407Z,0
2017-01-12T01:37:12.443Z,0
2017-01-12T01:37:42.487Z,0
2017-01-12T01:38:12.508Z,0
2017-01-12T01:38:42.527Z,0
2017-01-12T01:39:12.559Z,0
2017-01-12T01:39:42.591Z,0
2017-01-12T01:40:12.633Z,0
2017-01-12T01:40:42.648Z,0
2017-01-12T01:41:12.684Z,0
2017-01-12T01:41:42.711Z,0
2017-01-12T01:42:12.757Z,0
2017-01-12T01:42:42.762Z,0
2017-01-12T01:43:12.801Z,0
2017-01-12T01:43:42.833Z,0
2017-01-12T01:44:12.864Z,0
2017-01-12T01:44:42.892Z,0
2017-01-12T01:45:12.932Z,0
2017-01-12T01:45:42.953Z,0
2017-01-12T01:46:12.990Z,0
2017-01-12T01:46:43.026Z,0
2017-01-12T01:47:13.050Z,0
2017-01-12T01:47:43.079Z,0
2017-01-12T01:48:13.100Z,0
2017-01-12T01:48:43.142Z,0
2017-01-12T01:49:13.169Z,0
2017-01-12T01:49:43.193Z,0
2017-01-12T01:50:13.221Z,0
2017-01-12T01:50:43.259Z,0
2017-01-12T01:51:13.284Z,0
2017-01-12T01:51:43.319Z,0
2017-01-12T01:52:13.348Z,0
2017-01-12T01:52:43.382Z,0
2017-01-12T01:53:13.408Z,0
2017-01-12T01:53:43.433Z,0
2017-01-12T01:54:13.468Z,0
2017-01-12T01:54:43.503Z,0
2017-01-12T01:55:13.525Z,0
2017-01-12T01:55:43.551Z,0
2017-01-12T01:56:13.587Z,0
2017-01-12T01:56:43.627Z,0
2017-01-12T01:57:13.659Z,0
2017-01-12T01:57:43.681Z,0
2017-01-12T01:58:13.702Z,0
2017-01-12T01:58:43.733Z,0
2017-01-12T01:59:13.768Z,0
2017-01-12T01:59:43.797Z,0
2017-01-12T02:00:13.830Z,0
2017-01-12T02:00:43.857Z,0
2017-01-12T02:01:13.886Z,0
2017-01-12T02:01:43.925Z,0
2017-01-12T02:02:13.948Z,0
2017-01-12T02:02:44.277Z,0
2017-01-12T02:03:14.007Z,0
2017-01-12T02:03:44.041Z,0
2017-01-12T02:04:14.060Z,0
2017-01-12T02:04:44.105Z,0
2017-01-12T02:05:14.126Z,0
2017-01-12T02:05:44.163Z,0
2017-01-12T02:06:14.186Z,0
2017-01-12T02:06:44.215Z,0
2017-01-12T02:07:14.250Z,0
2017-01-12T02:07:44.275Z,0
2017-01-12T02:08:14.328Z,0
2017-01-12T02:08:44.339Z,0
2017-01-12T02:09:14.375Z,0
2017-01-12T02:09:44.398Z,0
2017-01-12T02:10:14.431Z,0
2017-01-12T02:10:44.481Z,0
2017-01-12T02:11:14.491Z,0
2017-01-12T02:11:44.528Z,0
2017-01-12T02:12:14.550Z,0
2017-01-12T02:12:44.578Z,0
2017-01-12T02:13:14.606Z,0
2017-01-12T02:13:44.641Z,0
2017-01-12T02:14:14.676Z,0
2017-01-12T02:14:44.699Z,0
2017-01-12T02:15:14.733Z,0
2017-01-12T02:15:44.754Z,0
2017-01-12T02:16:14.791Z,0
2017-01-12T02:16:44.819Z,0
2017-01-12T02:17:14.856Z,0
2017-01-12T02:17:44.884Z,0
2017-01-12T02:18:14.906Z,0
2017-01-12T02:18:44.946Z,0
2017-01-12T02:19:15.001Z,0
2017-01-12T02:19:45.001Z,0
2017-01-12T02:20:15.053Z,0
2017-01-12T02:20:45.066Z,0
2017-01-12T02:21:15.098Z,0
2017-01-12T02:21:45.119Z,0
2017-01-12T02:22:15.155Z,0
2017-01-12T02:22:45.185Z,0
2017-01-12T02:23:15.223Z,0
2017-01-12T02:23:45.248Z,0
2017-01-12T02:24:15.283Z,0
2017-01-12T02:24:45.308Z,0
2017-01-12T02:25:15.345Z,0
2017-01-12T02:25:45.361Z,0
2017-01-12T02:26:15.392Z,0
2017-01-12T02:26:45.420Z,0
2017-01-12T02:27:15.452Z,0
2017-01-12T02:27:45.481Z,0
2017-01-12T02:28:15.515Z,0
2017-01-12T02:28:45.544Z,0
2017-01-12T02:29:15.574Z,0
2017-01-12T02:29:45.602Z,0
2017-01-12T02:30:15.627Z,0
2017-01-12T02:30:45.664Z,0
2017-01-12T02:31:15.688Z,0
2017-01-12T02:31:45.723Z,0
2017-01-12T02:32:15.754Z,0
2017-01-12T02:32:45.781Z,0
2017-01-12T02:33:16.118Z,0
2017-01-12T02:33:45.844Z,0
2017-01-12T02:34:15.875Z,0
2017-01-12T02:34:45.902Z,0
2017-01-12T02:35:15.940Z,0
2017-01-12T02:35:45.960Z,0
2017-01-12T02:36:15.998Z,0
2017-01-12T02:36:46.034Z,0
2017-01-12T02:37:16.056Z,0
2017-01-12T02:37:46.079Z,0
2017-01-12T02:38:16.114Z,0
2017-01-12T02:38:46.147Z,0
2017-01-12T02:39:16.187Z,0
2017-01-12T02:39:46.207Z,0
2017-01-12T02:40:16.235Z,0
2017-01-12T02:40:46.268Z,0
2017-01-12T02:41:16.309Z,0
2017-01-12T02:41:46.324Z,0
2017-01-12T02:42:16.371Z,0
2017-01-12T02:42:46.388Z,0
2017-01-12T02:43:16.421Z,0
2017-01-12T02:43:46.455Z,0
2017-01-12T02:44:16.477Z,0
2017-01-12T02:44:46.514Z,0
2017-01-12T02:45:16.536Z,0
2017-01-12T02:45:46.566Z,0
2017-01-12T02:46:16.597Z,0
2017-01-12T02:46:46.629Z,0
2017-01-12T02:47:16.662Z,0
2017-01-12T02:47:46.693Z,0
2017-01-12T02:48:16.716Z,0
2017-01-12T02:48:47.047Z,0
2017-01-12T02:49:16.787Z,0
2017-01-12T02:49:46.811Z,0
2017-01-12T02:50:16.851Z,0
2017-01-12T02:50:46.871Z,0
2017-01-12T02:51:16.905Z,0
2017-01-12T02:51:46.935Z,0
2017-01-12T02:52:16.964Z,0
2017-01-12T02:52:46.994Z,0
2017-01-12T02:53:17.021Z,0
2017-01-12T02:53:47.100Z,0
2017-01-12T02:54:17.079Z,0
2017-01-12T02:54:47.122Z,0
2017-01-12T02:55:17.137Z,0
2017-01-12T02:55:47.175Z,0
2017-01-12T02:56:17.215Z,0
2017-01-12T02:56:47.234Z,0
2017-01-12T02:57:17.260Z,0
2017-01-12T02:57:47.298Z,0
2017-01-12T02:58:17.322Z,0
2017-01-12T02:58:47.352Z,0
2017-01-12T02:59:17.384Z,0
2017-01-12T02:59:47.425Z,0
2017-01-12T03:00:17.441Z,0
2017-01-12T03:00:47.618Z,0
2017-01-12T03:01:17.514Z,0
2017-01-12T03:01:47.540Z,0
2017-01-12T03:02:17.574Z,0
2017-01-12T03:02:47.593Z,0
2017-01-12T03:03:17.621Z,0
2017-01-12T03:03:47.662Z,0
2017-01-12T03:04:17.685Z,0
2017-01-12T03:04:47.726Z,0
2017-01-12T03:05:17.751Z,0
2017-01-12T03:05:47.776Z,0
2017-01-12T03:06:17.808Z,0
2017-01-12T03:06:47.836Z,0
2017-01-12T03:07:17.860Z,0
2017-01-12T03:07:47.905Z,0
2017-01-12T03:08:17.928Z,0
2017-01-12T03:08:47.951Z,0
2017-01-12T03:09:18.092Z,0
2017-01-12T03:09:48.027Z,0
2017-01-12T03:10:18.086Z,0
2017-01-12T03:10:48.076Z,0
2017-01-12T03:11:18.113Z,0
2017-01-12T03:11:48.140Z,0
2017-01-12T03:12:18.171Z,0
2017-01-12T03:12:48.201Z,0
2017-01-12T03:13:18.230Z,0
2017-01-12T03:13:48.261Z,0
2017-01-12T03:14:18.291Z,0
2017-01-12T03:14:48.314Z,0
2017-01-12T03:15:18.352Z,0
2017-01-12T03:15:48.372Z,0
2017-01-12T03:16:18.427Z,0
2017-01-12T03:16:48.444Z,0
2017-01-12T03:17:18.471Z,0
2017-01-12T03:17:48.501Z,0
2017-01-12T03:18:18.538Z,0
2017-01-12T03:18:48.570Z,0
2017-01-12T03:19:18.598Z,0
2017-01-12T03:19:48.632Z,0
2017-01-12T03:20:18.652Z,0
2017-01-12T03:20:48.679Z,0
2017-01-12T03:21:18.715Z,0
2017-01-12T03:21:48.748Z,0
2017-01-12T03:22:18.775Z,0
2017-01-12T03:22:48.802Z,0
2017-01-12T03:23:18.841Z,0
2017-01-12T03:23:48.869Z,0
2017-01-12T03:24:18.892Z,0
2017-01-12T03:24:48.927Z,0
2017-01-12T03:25:18.955Z,0
2017-01-12T03:25:48.996Z,0
2017-01-12T03:26:19.014Z,0
2017-01-12T03:26:49.050Z,0
2017-01-12T03:27:19.078Z,0
2017-01-12T03:27:49.107Z,0
2017-01-12T03:28:19.141Z,0
2017-01-12T03:28:49.175Z,0
2017-01-12T03:29:19.200Z,0
2017-01-12T03:29:49.236Z,0
2017-01-12T03:30:19.252Z,0
2017-01-12T03:30:49.288Z,0
2017-01-12T03:31:19.316Z,0
2017-01-12T03:31:49.353Z,0
2017-01-12T03:32:19.377Z,0
2017-01-12T03:32:49.415Z,0
2017-01-12T03:33:19.438Z,0
2017-01-12T03:33:49.471Z,0
2017-01-12T03:34:19.501Z,0
2017-01-12T03:34:49.837Z,0
2017-01-12T03:35:19.557Z,0
2017-01-12T03:35:49.590Z,0
2017-01-12T03:36:19.619Z,0
2017-01-12T03:36:49.655Z,0
2017-01-12T03:37:19.696Z,0
2017-01-12T03:37:49.712Z,0
2017-01-12T03:38:19.747Z,0
2017-01-12T03:38:49.772Z,0
2017-01-12T03:39:19.811Z,0
2017-01-12T03:39:49.832Z,0
2017-01-12T03:40:19.866Z,0
2017-01-12T03:40:49.901Z,0
2017-01-12T03:41:19.925Z,0
2017-01-12T03:41:49.960Z,0
2017-01-12T03:42:19.986Z,0
2017-01-12T03:42:50.018Z,0
2017-01-12T03:43:20.077Z,0
2017-01-12T03:43:50.074Z,0
2017-01-12T03:44:20.120Z,0
2017-01-12T03:44:50.143Z,0
2017-01-12T03:45:20.174Z,0
2017-01-12T03:45:50.215Z,0
2017-01-12T03:46:20.226Z,0
2017-01-12T03:46:50.260Z,0
2017-01-12T03:47:20.296Z,0
2017-01-12T03:47:50.321Z,0
2017-01-12T03:48:20.351Z,0
2017-01-12T03:48:50.377Z,0
2017-01-12T03:49:20.414Z,0
2017-01-12T03:49:50.453Z,0
2017-01-12T03:50:20.479Z,0
2017-01-12T03:50:50.509Z,0
2017-01-12T03:51:20.533Z,0
2017-01-12T03:51:50.568Z,0
2017-01-12T03:52:20.593Z,0
2017-01-12T03:52:50.622Z,0
2017-01-12T03:53:20.663Z,0
2017-01-12T03:53:50.690Z,0
2017-01-12T03:54:20.720Z,0
2017-01-12T03:54:50.750Z,0
2017-01-12T03:55:20.980Z,0
2017-01-12T03:55:50.805Z,0
2017-01-12T03:56:20.834Z,0
2017-01-12T03:56:50.864Z,0
2017-01-12T03:57:20.900Z,0
2017-01-12T03:57:50.922Z,0
2017-01-12T03:58:20.954Z,0
2017-01-12T03:58:51.011Z,0
2017-01-12T03:59:21.016Z,0
2017-01-12T03:59:51.055Z,0
2017-01-12T04:00:21.079Z,0
2017-01-12T04:00:51.104Z,0
2017-01-12T04:01:21.144Z,0
2017-01-12T04:01:51.174Z,0
2017-01-12T04:02:21.191Z,0
2017-01-12T04:02:51.231Z,0
2017-01-12T04:03:21.268Z,0
2017-01-12T04:03:51.284Z,0
2017-01-12T04:04:21.325Z,0
2017-01-12T04:04:51.357Z,0
2017-01-12T04:05:21.707Z,0
2017-01-12T04:05:51.419Z,0
2017-01-12T04:06:21.450Z,0
2017-01-12T04:06:51.477Z,0
2017-01-12T04:07:21.497Z,0
2017-01-12T04:07:51.534Z,0
2017-01-12T04:08:21.569Z,0
2017-01-12T04:08:51.599Z,0
2017-01-12T04:09:21.625Z,0
2017-01-12T04:09:51.659Z,0
2017-01-12T04:10:21.691Z,0
2017-01-12T04:10:51.717Z,0
2017-01-12T04:11:21.747Z,0
2017-01-12T04:11:51.785Z,0
2017-01-12T04:12:21.811Z,0
2017-01-12T04:12:51.840Z,0
2017-01-12T04:13:21.868Z,0
2017-01-12T04:13:51.906Z,0
2017-01-12T04:14:21.929Z,0
2017-01-12T04:14:51.957Z,0
2017-01-12T04:15:21.992Z,0
2017-01-12T04:15:52.028Z,0
2017-01-12T04:16:22.052Z,0
2017-01-12T04:16:52.083Z,0
2017-01-12T04:17:22.118Z,0
2017-01-12T04:17:52.146Z,0
2017-01-12T04:18:22.169Z,0
2017-01-12T04:18:52.206Z,0
2017-01-12T04:19:22.234Z,0
2017-01-12T04:19:52.265Z,0
2017-01-12T04:20:22.301Z,0
2017-01-12T04:20:52.325Z,0
2017-01-12T04:21:22.361Z,0
2017-01-12T04:21:52.381Z,0
2017-01-12T04:22:22.416Z,0
2017-01-12T04:22:52.441Z,0
2017-01-12T04:23:22.472Z,0
2017-01-12T04:23:52.508Z,0
2017-01-12T04:24:22.533Z,0
2017-01-12T04:24:52.570Z,0
2017-01-12T04:25:22.595Z,0
2017-01-12T04:25:52.629Z,0
2017-01-12T04:26:22.656Z,0
2017-01-12T04:26:52.693Z,0
2017-01-12T04:27:22.723Z,0
2017-01-12T04:27:52.744Z,0
2017-01-12T04:28:22.774Z,0
2017-01-12T04:28:52.962Z,0
2017-01-12T04:29:22.843Z,0
2017-01-12T04:29:52.875Z,0
2017-01-12T04:30:22.903Z,0
2017-01-12T04:30:52.929Z,0
2017-01-12T04:31:22.967Z,0
2017-01-12T04:31:52.992Z,0
2017-01-12T04:32:23.032Z,0
2017-01-12T04:32:53.054Z,0
2017-01-12T04:33:23.086Z,0
2017-01-12T04:33:53.114Z,0
2017-01-12T04:34:23.144Z,0
2017-01-12T04:34:53.176Z,0
2017-01-12T04:35:23.204Z,0
2017-01-12T04:35:53.240Z,0
2017-01-12T04:36:23.571Z,0
2017-01-12T04:36:53.323Z,0
2017-01-12T04:37:23.335Z,0
2017-01-12T04:37:53.363Z,0
2017-01-12T04:38:23.392Z,0
2017-01-12T04:38:53.432Z,0
2017-01-12T04:39:23.446Z,0
2017-01-12T04:39:53.490Z,0
2017-01-12T04:40:23.499Z,0
2017-01-12T04:40:53.543Z,0
2017-01-12T04:41:23.577Z,0
2017-01-12T04:41:53.599Z,0
2017-01-12T04:42:23.633Z,0
2017-01-12T04:42:53.688Z,0
2017-01-12T04:43:23.693Z,0
2017-01-12T04:43:53.728Z,0
2017-01-12T04:44:23.756Z,0
2017-01-12T04:44:53.783Z,0
2017-01-12T04:45:23.812Z,0
2017-01-12T04:45:53.851Z,0
2017-01-12T04:46:23.872Z,0
2017-01-12T04:46:53.905Z,0
2017-01-12T04:47:23.949Z,0
2017-01-12T04:47:53.980Z,0
2017-01-12T04:48:24.023Z,0
2017-01-12T04:48:54.021Z,0
2017-01-12T04:49:24.065Z,0
2017-01-12T04:49:54.091Z,0
2017-01-12T04:50:24.122Z,0
2017-01-12T04:50:54.144Z,0
2017-01-12T04:51:24.176Z,0
2017-01-12T04:51:54.210Z,0
2017-01-12T04:52:24.232Z,0
2017-01-12T04:52:54.273Z,0
2017-01-12T04:53:24.304Z,0
2017-01-12T04:53:54.331Z,0
2017-01-12T04:54:24.383Z,0
2017-01-12T04:54:54.389Z,0
2017-01-12T04:55:24.426Z,0
2017-01-12T04:55:54.457Z,0
2017-01-12T04:56:24.479Z,0
2017-01-12T04:56:54.520Z,0
2017-01-12T04:57:24.573Z,0
2017-01-12T04:57:54.577Z,0
2017-01-12T04:58:24.604Z,0
2017-01-12T04:58:54.647Z,0
2017-01-12T04:59:24.666Z,0
2017-01-12T04:59:54.688Z,0
2017-01-12T05:00:24.725Z,0
2017-01-12T05:00:54.757Z,0
2017-01-12T05:01:24.793Z,0
2017-01-12T05:01:54.826Z,0
2017-01-12T05:02:24.854Z,0
2017-01-12T05:02:54.878Z,0
2017-01-12T05:03:24.915Z,0
2017-01-12T05:03:54.948Z,0
2017-01-12T05:04:24.972Z,0
2017-01-12T05:04:55.004Z,0
2017-01-12T05:05:25.032Z,0
2017-01-12T05:05:55.059Z,0
2017-01-12T05:06:25.093Z,0
2017-01-12T05:06:55.124Z,0
2017-01-12T05:07:25.160Z,0
2017-01-12T05:07:55.181Z,0
2017-01-12T05:08:25.218Z,0
2017-01-12T05:08:55.245Z,0
2017-01-12T05:09:25.272Z,0
2017-01-12T05:09:55.307Z,0
2017-01-12T05:10:25.332Z,0
2017-01-12T05:10:55.365Z,0
2017-01-12T05:11:25.393Z,0
2017-01-12T05:11:55.430Z,0
2017-01-12T05:12:25.464Z,0
2017-01-12T05:12:55.492Z,0
2017-01-12T05:13:25.517Z,0
2017-01-12T05:13:55.544Z,0
2017-01-12T05:14:25.578Z,0
2017-01-12T05:14:55.613Z,0
2017-01-12T05:15:25.640Z,0
2017-01-12T05:15:55.665Z,0
2017-01-12T05:16:25.691Z,0
2017-01-12T05:16:55.735Z,0
2017-01-12T05:17:25.760Z,0
2017-01-12T05:17:55.788Z,0
2017-01-12T05:18:25.821Z,0
2017-01-12T05:18:55.854Z,0
2017-01-12T05:19:25.877Z,0
2017-01-12T05:19:55.914Z,0
2017-01-12T05:20:25.953Z,0
2017-01-12T05:20:55.971Z,0
2017-01-12T05:21:26.000Z,0
2017-01-12T05:21:56.022Z,0
2017-01-12T05:22:26.068Z,0
2017-01-12T05:22:56.098Z,0
2017-01-12T05:23:26.123Z,0
2017-01-12T05:23:56.155Z,0
2017-01-12T05:24:26.194Z,0
2017-01-12T05:24:56.215Z,0
2017-01-12T05:25:26.241Z,0
2017-01-12T05:25:56.275Z,0
2017-01-12T05:26:26.305Z,0
2017-01-12T05:26:56.337Z,0
2017-01-12T05:27:26.369Z,0
2017-01-12T05:27:56.404Z,0
2017-01-12T05:28:26.428Z,0
2017-01-12T05:28:56.458Z,0
2017-01-12T05:29:26.491Z,0
2017-01-12T05:29:56.523Z,0
2017-01-12T05:30:26.552Z,0
2017-01-12T05:30:56.580Z,0
2017-01-12T05:31:26.638Z,0
2017-01-12T05:31:56.640Z,0
2017-01-12T05:32:26.667Z,0
2017-01-12T05:32:56.723Z,0
2017-01-12T05:33:26.727Z,0
2017-01-12T05:33:56.764Z,0
2017-01-12T05:34:26.795Z,0
2017-01-12T05:34:56.822Z,0
2017-01-12T05:35:26.852Z,0
2017-01-12T05:35:56.883Z,0
2017-01-12T05:36:26.918Z,0
2017-01-12T05:36:56.944Z,0
2017-01-12T05:37:26.974Z,0
2017-01-12T05:37:57.006Z,0
2017-01-12T05:38:27.031Z,0
2017-01-12T05:38:57.067Z,0
2017-01-12T05:39:27.091Z,0
2017-01-12T05:39:57.129Z,0
2017-01-12T05:40:27.151Z,0
2017-01-12T05:40:57.184Z,0
2017-01-12T05:41:27.224Z,0
2017-01-12T05:41:57.278Z,0
2017-01-12T05:42:27.281Z,0
2017-01-12T05:42:57.316Z,0
2017-01-12T05:43:27.341Z,0
2017-01-12T05:43:57.375Z,0
2017-01-12T05:44:27.398Z,0
2017-01-12T05:44:57.440Z,0
2017-01-12T05:45:27.490Z,0
2017-01-12T05:45:57.498Z,0
2017-01-12T05:46:27.514Z,0
2017-01-12T05:46:57.555Z,0
2017-01-12T05:47:27.595Z,0
2017-01-12T05:47:57.641Z,0
2017-01-12T05:48:27.643Z,0
2017-01-12T05:48:57.670Z,0
2017-01-12T05:49:27.718Z,0
2017-01-12T05:49:57.747Z,0
2017-01-12T05:50:27.768Z,0
2017-01-12T05:50:57.801Z,0
2017-01-12T05:51:27.833Z,0
2017-01-12T05:51:57.858Z,0
2017-01-12T05:52:27.880Z,0
2017-01-12T05:52:57.914Z,0
2017-01-12T05:53:27.942Z,0
2017-01-12T05:53:57.973Z,0
2017-01-12T05:54:28.014Z,0
2017-01-12T05:54:58.034Z,0
2017-01-12T05:55:28.065Z,0
2017-01-12T05:55:58.110Z,0
2017-01-12T05:56:28.123Z,0
2017-01-12T05:56:58.168Z,0
2017-01-12T05:57:28.185Z,0
2017-01-12T05:57:58.220Z,0
2017-01-12T05:58:28.252Z,0
2017-01-12T05:58:58.281Z,0
2017-01-12T05:59:28.308Z,0
2017-01-12T05:59:58.349Z,0
2017-01-12T06:00:28.393Z,0
2017-01-12T06:00:58.396Z,0
2017-01-12T06:01:28.461Z,0
2017-01-12T06:01:58.459Z,0
2017-01-12T06:02:28.495Z,0
2017-01-12T06:02:58.519Z,0
2017-01-12T06:03:28.558Z,0
2017-01-12T06:03:58.578Z,0
2017-01-12T06:04:28.620Z,0
2017-01-12T06:04:58.647Z,0
2017-01-12T06:05:28.670Z,0
2017-01-12T06:05:58.705Z,0
2017-01-12T06:06:28.728Z,0
2017-01-12T06:06:58.762Z,0
2017-01-12T06:07:28.803Z,0
2017-01-12T06:07:58.827Z,0
2017-01-12T06:08:28.858Z,0
2017-01-12T06:08:58.881Z,0
2017-01-12T06:09:28.914Z,0
2017-01-12T06:09:58.943Z,0
2017-01-12T06:10:28.972Z,0
2017-01-12T06:10:59.004Z,0
2017-01-12T06:11:29.033Z,0
2017-01-12T06:11:59.068Z,0
2017-01-12T06:12:29.092Z,0
2017-01-12T06:12:59.124Z,0
2017-01-12T06:13:29.158Z,0
2017-01-12T06:13:59.190Z,0
2017-01-12T06:14:29.220Z,0
2017-01-12T06:14:59.250Z,0
2017-01-12T06:15:29.281Z,0
2017-01-12T06:15:59.318Z,0
2017-01-12T06:16:29.335Z,0
2017-01-12T06:16:59.369Z,0
2017-01-12T06:17:29.400Z,0
2017-01-12T06:17:59.431Z,0
2017-01-12T06:18:29.452Z,0
2017-01-12T06:18:59.490Z,0
2017-01-12T06:19:29.523Z,0
2017-01-12T06:19:59.546Z,0
2017-01-12T06:20:29.579Z,0
2017-01-12T06:20:59.611Z,0
2017-01-12T06:21:29.642Z,0
2017-01-12T06:21:59.670Z,0
2017-01-12T06:22:29.703Z,0
2017-01-12T06:22:59.730Z,0
2017-01-12T06:23:29.763Z,0
2017-01-12T06:23:59.792Z,0
2017-01-12T06:24:29.828Z,0
2017-01-12T06:25:00.031Z,0
2017-01-12T06:25:29.887Z,0
2017-01-12T06:25:59.912Z,0
2017-01-12T06:26:29.949Z,0
2017-01-12T06:26:59.972Z,0
2017-01-12T06:27:30.001Z,0
2017-01-12T06:28:00.041Z,0
2017-01-12T06:28:30.105Z,4
2017-01-12T06:29:00.090Z,4
2017-01-12T06:29:30.137Z,4
2017-01-12T06:30:00.159Z,4
2017-01-12T06:30:30.193Z,0
2017-01-12T06:31:00.220Z,0
2017-01-12T06:31:30.244Z,4
2017-01-12T06:32:00.275Z,4
2017-01-12T06:32:30.300Z,4
2017-01-12T06:33:00.334Z,0
2017-01-12T06:33:30.371Z,4
2017-01-12T06:34:00.574Z,4
2017-01-12T06:34:30.428Z,4
2017-01-12T06:35:00.463Z,4
2017-01-12T06:35:30.479Z,8
2017-01-12T06:36:00.529Z,4
2017-01-12T06:36:30.550Z,8
2017-01-12T06:37:00.584Z,8
2017-01-12T06:37:30.631Z,8
2017-01-12T06:38:00.641Z,8
2017-01-12T06:38:30.678Z,8
2017-01-12T06:39:00.707Z,8
2017-01-12T06:39:30.738Z,12
2017-01-12T06:40:00.917Z,12
2017-01-12T06:40:30.789Z,16
2017-01-12T06:41:00.821Z,16
2017-01-12T06:41:30.862Z,16
2017-01-12T06:42:00.880Z,16
2017-01-12T06:42:30.909Z,20
2017-01-12T06:43:00.948Z,16
2017-01-12T06:43:30.978Z,20
2017-01-12T06:44:01.015Z,20
2017-01-12T06:44:31.032Z,20
2017-01-12T06:45:01.070Z,28
2017-01-12T06:45:31.099Z,28
2017-01-12T06:46:01.128Z,28
2017-01-12T06:46:31.146Z,28
2017-01-12T06:47:01.335Z,32
2017-01-12T06:47:31.209Z,36
2017-01-12T06:48:01.248Z,40
2017-01-12T06:48:31.278Z,48
2017-01-12T06:49:01.341Z,52
2017-01-12T06:49:31.368Z,56
2017-01-12T06:50:01.375Z,60
2017-01-12T06:50:31.391Z,60
2017-01-12T06:51:01.434Z,64
2017-01-12T06:51:31.492Z,68
2017-01-12T06:52:01.486Z,72
2017-01-12T06:52:31.517Z,76
2017-01-12T06:53:01.553Z,80
2017-01-12T06:53:31.594Z,84
2017-01-12T06:54:01.911Z,84
2017-01-12T06:54:31.633Z,92
2017-01-12T06:55:01.824Z,104
2017-01-12T06:55:31.694Z,112
2017-01-12T06:56:01.730Z,116
2017-01-12T06:56:31.756Z,124
2017-01-12T06:57:01.790Z,128
2017-01-12T06:57:31.815Z,128
2017-01-12T06:58:02.002Z,128
2017-01-12T06:58:31.888Z,124
2017-01-12T06:59:02.162Z,124
2017-01-12T06:59:31.936Z,120
2017-01-12T07:00:02.479Z,124
2017-01-12T07:00:32.005Z,132
2017-01-12T07:01:02.385Z,140
2017-01-12T07:01:32.072Z,144
2017-01-12T07:02:02.399Z,148
2017-01-12T07:02:32.129Z,152
2017-01-12T07:03:02.162Z,160
2017-01-12T07:03:32.187Z,156
2017-01-12T07:04:02.517Z,164
2017-01-12T07:04:32.242Z,168
2017-01-12T07:05:02.576Z,172
2017-01-12T07:05:32.306Z,180
2017-01-12T07:06:02.537Z,184
2017-01-12T07:06:32.367Z,192
2017-01-12T07:07:02.647Z,208
2017-01-12T07:07:32.427Z,220
2017-01-12T07:08:02.625Z,232
2017-01-12T07:08:32.488Z,240
2017-01-12T07:09:02.764Z,236
2017-01-12T07:09:32.547Z,236
2017-01-12T07:10:02.605Z,236
2017-01-12T07:10:32.610Z,260
2017-01-12T07:11:02.640Z,272
2017-01-12T07:11:32.671Z,284
2017-01-12T07:12:02.696Z,344
2017-01-12T07:12:32.724Z,404
2017-01-12T07:13:02.765Z,408
2017-01-12T07:13:32.789Z,440
2017-01-12T07:14:02.821Z,484
2017-01-12T07:14:32.883Z,476
2017-01-12T07:15:03.028Z,480
2017-01-12T07:15:32.905Z,520
2017-01-12T07:16:03.054Z,528
2017-01-12T07:16:32.998Z,564
2017-01-12T07:17:03.256Z,608
2017-01-12T07:17:33.046Z,628
2017-01-12T07:18:03.262Z,656
2017-01-12T07:18:33.105Z,664
2017-01-12T07:19:03.128Z,668
2017-01-12T07:19:33.151Z,680
2017-01-12T07:20:03.239Z,688
2017-01-12T07:20:33.220Z,684
2017-01-12T07:21:03.246Z,656
2017-01-12T07:21:33.278Z,608